createdAt,value
2018-07-14T00:00:36.641Z,18.02
2018-07-14T00:03:05.381Z,17.98
2018-07-14T00:05:33.888Z,17.90
2018-07-14T00:08:02.300Z,17.86
2018-07-14T00:10:30.890Z,17.79
2018-07-14T00:12:59.380Z,17.76
2018-07-14T00:15:27.835Z,17.76
2018-07-14T00:17:56.297Z,17.78
2018-07-14T00:20:24.817Z,17.75
2018-07-14T00:22:53.339Z,17.75
2018-07-14T00:26:25.862Z,17.73
2018-07-14T00:28:54.374Z,17.68
2018-07-14T00:31:22.844Z,17.69
2018-07-14T00:33:51.281Z,17.68
2018-07-14T00:36:19.821Z,17.65
2018-07-14T00:38:48.244Z,17.63
2018-07-14T00:41:16.702Z,17.60
2018-07-14T00:43:45.242Z,17.56
2018-07-14T00:46:13.688Z,17.54
2018-07-14T00:48:42.299Z,17.51
2018-07-14T00:51:10.787Z,17.47
2018-07-14T00:53:39.311Z,17.45
2018-07-14T00:56:07.862Z,17.43
2018-07-14T00:58:36.381Z,17.43
2018-07-14T01:01:04.998Z,17.40
2018-07-14T01:03:33.614Z,17.38
2018-07-14T01:06:02.031Z,17.35
2018-07-14T01:08:30.579Z,17.31
2018-07-14T01:10:59.190Z,17.27
2018-07-14T01:13:27.740Z,17.26
2018-07-14T01:15:56.855Z,17.22
2018-07-14T01:18:25.437Z,17.18
2018-07-14T01:20:54.565Z,17.13
2018-07-14T01:23:23.191Z,17.12
2018-07-14T01:25:51.670Z,17.08
2018-07-14T01:28:20.118Z,17.06
2018-07-14T01:30:48.751Z,17.07
2018-07-14T01:33:17.172Z,17.02
2018-07-14T01:35:45.820Z,16.99
2018-07-14T01:38:15.042Z,16.95
2018-07-14T01:40:43.567Z,16.91
2018-07-14T01:43:12.079Z,16.89
2018-07-14T01:45:40.510Z,16.86
2018-07-14T01:48:09.056Z,16.80
2018-07-14T01:50:37.544Z,16.76
2018-07-14T01:53:06.130Z,16.74
2018-07-14T01:55:34.593Z,16.71
2018-07-14T01:58:03.044Z,16.68
2018-07-14T02:00:31.464Z,16.64
2018-07-14T02:03:08.042Z,16.63
2018-07-14T02:05:36.494Z,16.59
2018-07-14T02:08:04.953Z,16.57
2018-07-14T02:10:33.491Z,16.53
2018-07-14T02:13:01.961Z,16.49
2018-07-14T02:15:30.541Z,16.47
2018-07-14T02:17:59.016Z,16.42
2018-07-14T02:20:27.490Z,16.38
2018-07-14T02:22:55.994Z,16.36
2018-07-14T02:25:24.403Z,16.33
2018-07-14T02:27:52.952Z,16.29
2018-07-14T02:30:21.425Z,16.28
2018-07-14T02:32:49.873Z,16.25
2018-07-14T02:35:18.399Z,16.21
2018-07-14T02:37:47.774Z,16.17
2018-07-14T02:40:16.286Z,16.13
2018-07-14T02:42:44.804Z,16.11
2018-07-14T02:45:13.328Z,16.08
2018-07-14T02:47:42.837Z,16.02
2018-07-14T02:50:11.439Z,15.98
2018-07-14T02:52:40.016Z,15.91
2018-07-14T02:55:08.445Z,15.88
2018-07-14T02:57:36.969Z,15.84
2018-07-14T03:00:05.494Z,15.83
2018-07-14T03:02:33.932Z,15.80
2018-07-14T03:05:02.482Z,15.77
2018-07-14T03:07:30.945Z,15.72
2018-07-14T03:09:59.379Z,15.71
2018-07-14T03:12:27.852Z,15.69
2018-07-14T03:14:56.304Z,15.67
2018-07-14T03:17:24.789Z,15.65
2018-07-14T03:19:53.256Z,15.64
2018-07-14T03:22:21.802Z,15.60
2018-07-14T03:24:50.373Z,15.57
2018-07-14T03:27:18.860Z,15.59
2018-07-14T03:29:47.286Z,15.56
2018-07-14T03:32:15.744Z,15.50
2018-07-14T03:34:44.305Z,15.32
2018-07-14T03:37:13.049Z,15.21
2018-07-14T03:39:41.576Z,15.24
2018-07-14T03:42:10.043Z,15.29
2018-07-14T03:44:47.948Z,15.32
2018-07-14T03:47:16.469Z,15.35
2018-07-14T03:49:44.928Z,15.36
2018-07-14T03:52:13.431Z,15.35
2018-07-14T03:54:41.861Z,15.36
2018-07-14T03:57:10.473Z,15.36
2018-07-14T03:59:38.954Z,15.41
2018-07-14T04:02:07.450Z,15.42
2018-07-14T04:04:35.865Z,15.41
2018-07-14T04:07:04.374Z,15.42
2018-07-14T04:09:32.897Z,15.45
2018-07-14T04:12:01.317Z,15.49
2018-07-14T04:14:29.900Z,15.49
2018-07-14T04:16:58.444Z,15.51
2018-07-14T04:19:26.945Z,15.52
2018-07-14T04:22:35.925Z,15.60
2018-07-14T04:25:04.459Z,15.62
2018-07-14T04:27:33.020Z,15.55
2018-07-14T04:30:01.513Z,15.52
2018-07-14T04:32:30.015Z,15.59
2018-07-14T04:34:58.554Z,15.71
2018-07-14T04:37:27.050Z,15.89
2018-07-14T04:39:55.534Z,16.10
2018-07-14T04:42:24.016Z,16.22
2018-07-14T04:44:52.487Z,16.25
2018-07-14T04:47:20.931Z,16.27
2018-07-14T04:49:49.441Z,16.27
2018-07-14T04:52:17.916Z,16.31
2018-07-14T04:54:46.420Z,16.41
2018-07-14T04:57:14.928Z,16.48
2018-07-14T04:59:43.493Z,16.51
2018-07-14T05:02:12.105Z,16.54
2018-07-14T05:04:54.381Z,16.58
2018-07-14T05:07:22.953Z,16.63
2018-07-14T05:09:51.373Z,16.68
2018-07-14T05:12:20.031Z,16.73
2018-07-14T05:14:48.604Z,16.77
2018-07-14T05:17:17.088Z,16.90
2018-07-14T05:19:45.582Z,17.00
2018-07-14T05:22:14.165Z,17.09
2018-07-14T05:24:42.657Z,17.10
2018-07-14T05:27:11.121Z,17.13
2018-07-14T05:29:39.650Z,17.11
2018-07-14T05:32:08.087Z,17.12
2018-07-14T05:34:36.667Z,17.19
2018-07-14T05:37:05.360Z,17.27
2018-07-14T05:39:33.830Z,17.35
2018-07-14T05:42:02.331Z,17.42
2018-07-14T05:44:30.917Z,17.47
2018-07-14T05:46:59.374Z,17.49
2018-07-14T05:49:27.968Z,17.53
2018-07-14T05:51:56.495Z,17.57
2018-07-14T05:54:25.087Z,17.66
2018-07-14T05:56:53.668Z,17.78
2018-07-14T05:59:22.120Z,17.84
2018-07-14T06:01:50.776Z,17.96
2018-07-14T06:04:19.254Z,18.01
2018-07-14T06:06:47.772Z,18.06
2018-07-14T06:09:16.332Z,18.06
2018-07-14T06:11:44.830Z,18.14
2018-07-14T06:14:15.509Z,18.25
2018-07-14T06:16:44.096Z,18.28
2018-07-14T06:19:12.617Z,18.35
2018-07-14T06:21:41.094Z,18.38
2018-07-14T06:24:09.568Z,18.46
2018-07-14T06:26:38.056Z,18.55
2018-07-14T06:29:06.666Z,18.59
2018-07-14T06:31:35.116Z,18.63
2018-07-14T06:34:03.589Z,18.71
2018-07-14T06:36:32.083Z,18.77
2018-07-14T06:39:00.550Z,18.75
2018-07-14T06:41:29.058Z,18.78
2018-07-14T06:43:57.645Z,18.83
2018-07-14T06:46:26.121Z,18.89
2018-07-14T06:48:54.663Z,18.91
2018-07-14T06:51:23.163Z,18.98
2018-07-14T06:53:51.656Z,19.07
2018-07-14T06:56:20.119Z,19.02
2018-07-14T06:58:48.805Z,18.98
2018-07-14T07:01:17.261Z,18.98
2018-07-14T07:03:45.890Z,19.10
2018-07-14T07:06:14.453Z,19.18
2018-07-14T07:08:42.888Z,19.23
2018-07-14T07:11:11.660Z,19.34
2018-07-14T07:13:45.371Z,19.41
2018-07-14T07:16:13.852Z,19.44
2018-07-14T07:18:42.406Z,19.49
2018-07-14T07:21:11.114Z,19.58
2018-07-14T07:23:39.636Z,19.66
2018-07-14T07:26:08.099Z,19.69
2018-07-14T07:28:36.767Z,19.77
2018-07-14T07:31:05.265Z,19.86
2018-07-14T07:33:33.841Z,19.89
2018-07-14T07:36:02.372Z,20.04
2018-07-14T07:38:30.904Z,20.14
2018-07-14T07:40:59.369Z,20.17
2018-07-14T07:43:27.976Z,20.22
2018-07-14T07:45:56.568Z,20.32
2018-07-14T07:48:25.124Z,20.32
2018-07-14T07:50:53.606Z,20.42
2018-07-14T07:53:22.085Z,20.53
2018-07-14T07:55:50.677Z,20.52
2018-07-14T07:58:19.246Z,20.56
2018-07-14T08:00:47.742Z,20.62
2018-07-14T08:03:16.222Z,20.68
2018-07-14T08:05:44.705Z,20.75
2018-07-14T08:08:13.141Z,20.76
2018-07-14T08:10:41.576Z,20.80
2018-07-14T08:13:10.047Z,20.86
2018-07-14T08:15:49.601Z,20.94
2018-07-14T08:18:18.105Z,21.03
2018-07-14T08:20:46.647Z,21.11
2018-07-14T08:23:15.117Z,21.19
2018-07-14T08:25:43.609Z,21.19
2018-07-14T08:28:12.113Z,21.35
2018-07-14T08:30:40.572Z,21.42
2018-07-14T08:33:09.052Z,21.44
2018-07-14T08:35:37.551Z,21.47
2018-07-14T08:38:06.073Z,21.49
2018-07-14T08:40:34.597Z,21.49
2018-07-14T08:43:03.063Z,21.53
2018-07-14T08:45:31.654Z,21.55
2018-07-14T08:48:00.197Z,21.56
2018-07-14T08:50:28.646Z,21.52
2018-07-14T08:52:57.276Z,21.59
2018-07-14T08:55:25.806Z,21.59
2018-07-14T08:57:54.323Z,21.63
2018-07-14T09:00:22.826Z,21.66
2018-07-14T09:03:40.574Z,21.69
2018-07-14T09:06:09.201Z,21.74
2018-07-14T09:08:37.883Z,21.80
2018-07-14T09:11:06.579Z,21.91
2018-07-14T09:13:38.796Z,21.99
2018-07-14T09:16:07.408Z,22.01
2018-07-14T09:18:35.929Z,22.09
2018-07-14T09:21:04.414Z,22.19
2018-07-14T09:23:33.073Z,22.26
2018-07-14T09:26:01.584Z,22.31
2018-07-14T09:28:30.057Z,22.38
2018-07-14T09:30:58.613Z,22.52
2018-07-14T09:33:27.104Z,22.53
2018-07-14T09:35:55.596Z,22.65
2018-07-14T09:38:24.058Z,22.85
2018-07-14T09:40:52.549Z,22.96
2018-07-14T09:43:21.169Z,23.11
2018-07-14T09:45:49.597Z,23.11
2018-07-14T09:48:18.033Z,23.22
2018-07-14T09:50:46.605Z,23.36
2018-07-14T09:53:15.170Z,23.30
2018-07-14T09:55:43.638Z,23.45
2018-07-14T09:58:12.151Z,23.51
2018-07-14T10:00:45.883Z,23.52
2018-07-14T10:03:14.332Z,23.70
2018-07-14T10:05:43.002Z,23.89
2018-07-14T10:08:11.485Z,24.00
2018-07-14T10:10:39.953Z,23.98
2018-07-14T10:13:08.503Z,24.00
2018-07-14T10:15:37.017Z,24.13
2018-07-14T10:18:05.603Z,24.33
2018-07-14T10:20:34.086Z,24.32
2018-07-14T10:23:02.718Z,24.34
2018-07-14T10:25:31.259Z,24.42
2018-07-14T10:27:59.741Z,24.49
2018-07-14T10:30:28.345Z,24.64
2018-07-14T10:32:57.113Z,24.76
2018-07-14T10:35:25.615Z,24.84
2018-07-14T10:37:54.072Z,24.95
2018-07-14T10:40:22.558Z,25.06
2018-07-14T10:42:51.020Z,25.13
2018-07-14T10:45:19.482Z,25.33
2018-07-14T10:47:47.929Z,25.52
2018-07-14T10:50:16.461Z,25.33
2018-07-14T10:52:44.931Z,25.23
2018-07-14T10:55:13.543Z,25.34
2018-07-14T10:57:41.959Z,25.49
2018-07-14T11:00:19.623Z,25.58
2018-07-14T11:02:48.121Z,25.74
2018-07-14T11:05:16.697Z,26.27
2018-07-14T11:07:50.535Z,26.54
2018-07-14T11:10:19.071Z,26.67
2018-07-14T11:12:47.503Z,26.63
2018-07-14T11:15:15.960Z,26.61
2018-07-14T11:17:44.502Z,26.70
2018-07-14T11:20:12.985Z,26.91
2018-07-14T11:22:41.482Z,27.16
2018-07-14T11:25:09.947Z,27.47
2018-07-14T11:27:38.519Z,27.51
2018-07-14T11:30:07.109Z,27.04
2018-07-14T11:32:35.599Z,26.51
2018-07-14T11:35:04.117Z,26.60
2018-07-14T11:37:32.694Z,27.10
2018-07-14T11:40:01.977Z,27.72
2018-07-14T11:42:30.462Z,28.23
2018-07-14T11:45:13.689Z,28.77
2018-07-14T11:47:42.303Z,29.00
2018-07-14T11:50:10.759Z,29.40
2018-07-14T11:52:39.218Z,29.38
2018-07-14T11:55:07.758Z,29.66
2018-07-14T11:57:36.200Z,29.94
2018-07-14T12:00:04.905Z,30.03
2018-07-14T12:02:33.461Z,30.01
2018-07-14T12:05:03.196Z,30.18
2018-07-14T12:07:31.897Z,30.52
2018-07-14T12:10:00.386Z,30.75
2018-07-14T12:12:28.831Z,31.09
2018-07-14T12:14:57.349Z,31.12
2018-07-14T12:17:25.826Z,31.27
2018-07-14T12:19:54.285Z,31.84
2018-07-14T12:22:22.892Z,31.98
2018-07-14T12:24:51.328Z,31.94
2018-07-14T12:27:19.816Z,32.12
2018-07-14T12:29:48.321Z,32.25
2018-07-14T12:32:16.777Z,32.28
2018-07-14T12:34:45.267Z,32.40
2018-07-14T12:37:13.773Z,32.42
2018-07-14T12:39:42.261Z,32.86
2018-07-14T12:42:10.829Z,33.32
2018-07-14T12:44:39.308Z,33.18
2018-07-14T12:47:07.792Z,32.72
2018-07-14T12:49:36.272Z,32.63
2018-07-14T12:52:04.854Z,32.71
2018-07-14T12:54:33.353Z,32.70
2018-07-14T12:57:01.979Z,32.37
2018-07-14T12:59:30.513Z,32.90
2018-07-14T13:01:58.993Z,32.97
2018-07-14T13:04:27.476Z,33.22
2018-07-14T13:06:56.017Z,33.24
2018-07-14T13:09:24.556Z,33.13
2018-07-14T13:11:53.042Z,33.11
2018-07-14T13:14:21.601Z,33.48
2018-07-14T13:16:50.090Z,34.06
2018-07-14T13:19:18.784Z,34.34
2018-07-14T13:21:47.277Z,34.48
2018-07-14T13:24:15.839Z,34.28
2018-07-14T13:26:44.338Z,33.95
2018-07-14T13:29:12.827Z,33.78
2018-07-14T13:31:54.572Z,33.50
2018-07-14T13:34:23.068Z,33.46
2018-07-14T13:36:58.722Z,33.46
2018-07-14T13:39:27.260Z,33.41
2018-07-14T13:41:55.716Z,33.57
2018-07-14T13:44:24.239Z,33.72
2018-07-14T13:46:52.753Z,33.16
2018-07-14T13:49:21.431Z,32.98
2018-07-14T13:51:50.015Z,33.01
2018-07-14T13:54:18.841Z,32.95
2018-07-14T13:56:47.440Z,32.85
2018-07-14T13:59:16.068Z,32.66
2018-07-14T14:01:45.009Z,32.35
2018-07-14T14:04:13.513Z,32.41
2018-07-14T14:06:41.977Z,32.16
2018-07-14T14:09:10.549Z,32.27
2018-07-14T14:11:38.986Z,32.28
2018-07-14T14:14:07.927Z,32.36
2018-07-14T14:16:36.472Z,32.40
2018-07-14T14:19:05.350Z,32.73
2018-07-14T14:21:33.968Z,32.85
2018-07-14T14:24:02.506Z,32.53
2018-07-14T14:26:41.855Z,32.23
2018-07-14T14:29:10.280Z,32.02
2018-07-14T14:31:38.824Z,31.81
2018-07-14T14:34:07.294Z,31.74
2018-07-14T14:36:35.776Z,31.65
2018-07-14T14:39:05.516Z,31.63
2018-07-14T14:41:34.133Z,31.65
2018-07-14T14:44:02.676Z,31.78
2018-07-14T14:46:31.256Z,31.68
2018-07-14T14:48:59.807Z,31.66
2018-07-14T14:51:28.237Z,31.64
2018-07-14T14:53:57.396Z,31.60
2018-07-14T14:56:26.074Z,31.76
2018-07-14T14:58:54.530Z,31.98
2018-07-14T15:01:23.052Z,31.95
2018-07-14T15:03:51.646Z,31.58
2018-07-14T15:06:20.209Z,31.39
2018-07-14T15:08:49.009Z,31.29
2018-07-14T15:11:17.920Z,31.14
2018-07-14T15:13:46.483Z,31.04
2018-07-14T15:16:15.054Z,30.87
2018-07-14T15:18:43.538Z,31.14
2018-07-14T15:21:12.006Z,31.30
2018-07-14T15:23:40.485Z,31.30
2018-07-14T15:26:09.001Z,31.38
2018-07-14T15:28:37.462Z,31.22
2018-07-14T15:31:06.130Z,30.88
2018-07-14T15:33:34.611Z,30.75
2018-07-14T15:36:03.109Z,30.83
2018-07-14T15:38:31.722Z,30.86
2018-07-14T15:41:00.223Z,30.93
2018-07-14T15:43:28.772Z,30.84
2018-07-14T15:45:57.381Z,30.93
2018-07-14T15:48:40.000Z,30.82
2018-07-14T15:51:08.464Z,30.80
2018-07-14T15:53:40.138Z,31.01
2018-07-14T15:56:08.644Z,30.92
2018-07-14T15:58:37.146Z,30.92
2018-07-14T16:01:05.822Z,30.79
2018-07-14T16:03:34.503Z,30.79
2018-07-14T16:06:03.147Z,30.53
2018-07-14T16:08:32.185Z,30.55
2018-07-14T16:11:00.767Z,30.74
2018-07-14T16:13:29.248Z,30.65
2018-07-14T16:16:03.321Z,30.59
2018-07-14T16:18:32.389Z,30.35
2018-07-14T16:21:00.989Z,30.36
2018-07-14T16:23:29.422Z,30.48
2018-07-14T16:25:57.909Z,30.35
2018-07-14T16:28:26.363Z,30.37
2018-07-14T16:31:00.615Z,30.61
2018-07-14T16:33:29.189Z,30.68
2018-07-14T16:35:57.846Z,30.58
2018-07-14T16:38:26.256Z,30.47
2018-07-14T16:40:55.234Z,30.39
2018-07-14T16:43:23.686Z,30.09
2018-07-14T16:45:52.300Z,30.08
2018-07-14T16:48:20.759Z,30.14
2018-07-14T16:50:49.265Z,30.25
2018-07-14T16:53:17.853Z,30.19
2018-07-14T16:55:46.433Z,29.99
2018-07-14T16:58:14.908Z,30.04
2018-07-14T17:00:43.526Z,29.96
2018-07-14T17:03:12.076Z,29.90
2018-07-14T17:05:40.554Z,29.80
2018-07-14T17:08:09.052Z,29.61
2018-07-14T17:10:37.502Z,29.54
2018-07-14T17:13:06.160Z,29.49
2018-07-14T17:15:34.707Z,29.37
2018-07-14T17:18:03.164Z,29.42
2018-07-14T17:20:31.597Z,29.37
2018-07-14T17:23:00.178Z,29.27
2018-07-14T17:25:28.819Z,29.23
2018-07-14T17:27:57.301Z,29.20
2018-07-14T17:30:25.885Z,29.30
2018-07-14T17:32:54.337Z,29.37
2018-07-14T17:35:31.236Z,29.16
2018-07-14T17:37:59.760Z,28.96
2018-07-14T17:40:28.221Z,28.87
2018-07-14T17:42:56.697Z,28.79
2018-07-14T17:45:25.271Z,28.55
2018-07-14T17:47:53.723Z,28.45
2018-07-14T17:50:22.347Z,28.49
2018-07-14T17:52:50.814Z,28.49
2018-07-14T17:55:19.304Z,28.32
2018-07-14T17:57:48.040Z,28.17
2018-07-14T18:00:16.565Z,28.09
2018-07-14T18:02:45.349Z,28.00
2018-07-14T18:05:13.950Z,27.86
2018-07-14T18:07:42.426Z,27.67
2018-07-14T18:10:10.999Z,27.43
2018-07-14T18:12:39.472Z,27.15
2018-07-14T18:15:08.078Z,26.89
2018-07-14T18:17:36.546Z,26.64
2018-07-14T18:20:05.259Z,26.46
2018-07-14T18:22:33.723Z,26.28
2018-07-14T18:25:02.201Z,26.11
2018-07-14T18:27:30.633Z,25.96
2018-07-14T18:29:59.153Z,25.79
2018-07-14T18:32:27.641Z,25.67
2018-07-14T18:34:56.213Z,25.55
2018-07-14T18:37:24.652Z,25.40
2018-07-14T18:39:53.103Z,25.25
2018-07-14T18:42:21.544Z,25.13
2018-07-14T18:44:51.157Z,25.04
2018-07-14T18:47:19.663Z,24.94
2018-07-14T18:49:48.237Z,24.81
2018-07-14T18:52:16.758Z,24.71
2018-07-14T18:54:45.316Z,24.65
2018-07-14T18:57:13.772Z,24.56
2018-07-14T18:59:42.190Z,24.50
2018-07-14T19:02:10.802Z,24.44
2018-07-14T19:04:39.322Z,24.36
2018-07-14T19:07:08.001Z,24.30
2018-07-14T19:09:36.490Z,24.19
2018-07-14T19:12:05.155Z,24.08
2018-07-14T19:14:33.652Z,23.97
2018-07-14T19:17:02.260Z,23.87
2018-07-14T19:19:48.961Z,23.77
2018-07-14T19:22:17.510Z,23.67
2018-07-14T19:24:46.058Z,23.58
2018-07-14T19:27:14.621Z,23.40
2018-07-14T19:29:43.184Z,23.15
2018-07-14T19:32:11.798Z,22.88
2018-07-14T19:34:40.289Z,22.68
2018-07-14T19:37:08.845Z,22.52
2018-07-14T19:39:37.316Z,22.39
2018-07-14T19:42:05.907Z,22.27
2018-07-14T19:44:34.309Z,22.11
2018-07-14T19:47:02.766Z,21.95
2018-07-14T19:49:31.247Z,21.80
2018-07-14T19:51:59.879Z,21.58
2018-07-14T19:54:28.372Z,21.38
2018-07-14T19:56:56.992Z,21.24
2018-07-14T19:59:25.546Z,21.13
2018-07-14T20:01:54.069Z,21.05
2018-07-14T20:04:22.608Z,20.95
2018-07-14T20:06:51.136Z,20.85
2018-07-14T20:09:19.599Z,20.74
2018-07-14T20:11:48.071Z,20.64
2018-07-14T20:14:16.624Z,20.52
2018-07-14T20:16:45.102Z,20.44
2018-07-14T20:19:13.722Z,20.37
2018-07-14T20:21:42.244Z,20.30
2018-07-14T20:24:10.761Z,20.19
2018-07-14T20:26:39.297Z,19.97
2018-07-14T20:29:07.893Z,19.73
2018-07-14T20:31:36.505Z,19.58
2018-07-14T20:34:05.353Z,19.45
2018-07-14T20:36:33.993Z,19.40
2018-07-14T20:39:02.623Z,19.40
2018-07-14T20:41:31.255Z,19.38
2018-07-14T20:43:59.683Z,19.34
2018-07-14T20:46:28.180Z,19.30
2018-07-14T20:48:56.637Z,19.24
2018-07-14T20:51:26.277Z,19.15
2018-07-14T20:53:54.851Z,19.03
2018-07-14T20:56:23.404Z,18.94
2018-07-14T20:58:52.730Z,18.84
2018-07-14T21:01:21.217Z,18.68
2018-07-14T21:03:49.724Z,18.53
2018-07-14T21:06:18.282Z,18.45
2018-07-14T21:08:46.907Z,18.36
2018-07-14T21:11:15.465Z,18.31
2018-07-14T21:13:44.050Z,18.28
2018-07-14T21:16:12.645Z,18.25
2018-07-14T21:18:41.380Z,18.18
2018-07-14T21:21:09.942Z,18.10
2018-07-14T21:23:38.570Z,18.02
2018-07-14T21:26:07.157Z,18.04
2018-07-14T21:28:35.852Z,18.04
2018-07-14T21:31:04.365Z,17.99
2018-07-14T21:33:32.939Z,17.90
2018-07-14T21:36:01.395Z,17.82
2018-07-14T21:38:29.879Z,17.87
2018-07-14T21:40:58.390Z,17.90
2018-07-14T21:43:26.928Z,17.86
2018-07-14T21:45:55.622Z,17.77
2018-07-14T21:48:24.217Z,17.53
2018-07-14T21:50:52.692Z,17.36
2018-07-14T21:53:21.196Z,17.26
2018-07-14T21:55:49.753Z,17.21
2018-07-14T21:58:18.252Z,17.19
2018-07-14T22:00:52.264Z,17.20
2018-07-14T22:03:20.775Z,17.20
2018-07-14T22:05:49.233Z,17.23
2018-07-14T22:08:17.790Z,17.19
2018-07-14T22:10:46.275Z,17.10
2018-07-14T22:13:14.832Z,16.99
2018-07-14T22:15:43.593Z,16.94
2018-07-14T22:18:12.178Z,16.88
2018-07-14T22:20:40.731Z,16.83
2018-07-14T22:23:09.367Z,16.84
2018-07-14T22:25:37.895Z,16.87
2018-07-14T22:28:06.472Z,16.90
2018-07-14T22:30:35.060Z,16.88
2018-07-14T22:33:03.572Z,16.76
2018-07-14T22:35:32.022Z,16.67
2018-07-14T22:38:00.490Z,16.59
2018-07-14T22:40:29.123Z,16.56
2018-07-14T22:42:57.675Z,16.57
2018-07-14T22:45:26.253Z,16.56
2018-07-14T22:47:54.705Z,16.48
2018-07-14T22:50:23.162Z,16.31
2018-07-14T22:52:51.700Z,16.19
2018-07-14T22:55:20.323Z,16.10
2018-07-14T22:57:48.765Z,16.07
2018-07-14T23:00:17.249Z,16.07
2018-07-14T23:02:45.766Z,16.02
2018-07-14T23:05:14.299Z,16.00
2018-07-14T23:07:42.788Z,15.98
2018-07-14T23:10:11.324Z,15.93
2018-07-14T23:12:39.846Z,15.84
2018-07-14T23:15:08.348Z,15.87
2018-07-14T23:17:36.916Z,15.94
2018-07-14T23:20:05.521Z,15.93
2018-07-14T23:22:33.973Z,15.88
2018-07-14T23:25:02.469Z,15.83
2018-07-14T23:27:31.003Z,15.80
2018-07-14T23:29:59.535Z,15.80
2018-07-14T23:32:28.022Z,15.84
2018-07-14T23:34:56.474Z,15.82
2018-07-14T23:37:25.101Z,15.73
2018-07-14T23:39:53.545Z,15.71
2018-07-14T23:42:22.044Z,15.69
2018-07-14T23:44:50.555Z,15.70
2018-07-14T23:47:18.997Z,15.76
2018-07-14T23:49:47.484Z,15.81
2018-07-14T23:52:15.911Z,15.81
2018-07-14T23:54:44.372Z,15.81
2018-07-14T23:57:12.836Z,15.82
2018-07-14T23:59:41.317Z,15.78
